Time;durP1;ratioP1;P1;durP2;ratioP2;P2;SDS_P1;SDS_P2;PMS_P1;PMS_P2;Temp;Humidity;BMP_temperature;BMP_pressure;BME280_temperature;BME280_humidity;BME280_pressure;Samples;Min_cycle;Max_cycle;Signal;HPM_P1;HPM_P2
2022/10/21 00:00:29;;;;;;;15.65;5.97;;;;;;;;;;5022068;28;20021;-68
2022/10/21 00:02:54;;;;;;;11.80;5.32;;;;;;;;;;5024655;28;20031;-68
2022/10/21 00:05:20;;;;;;;15.95;5.72;;;;;;;;;;5023034;28;20018;-68
2022/10/21 00:07:46;;;;;;;16.20;5.93;;;;;;;;;;5024024;28;20415;-67
2022/10/21 00:10:11;;;;;;;11.15;5.50;;;;;;;;;;5023256;28;20017;-66
2022/10/21 00:12:37;;;;;;;14.27;5.25;;;;;;;;;;5022013;28;20022;-63
2022/10/21 00:15:05;;;;;;;11.10;5.03;;;;;;;;;;5021232;28;20042;-67
2022/10/21 00:17:30;;;;;;;12.07;5.55;;;;;;;;;;5012818;28;20424;-68
2022/10/21 00:19:56;;;;;;;13.48;5.13;;;;;;;;;;5012794;28;20029;-67
2022/10/21 00:22:22;;;;;;;15.40;5.85;;;;;;;;;;5011406;28;20037;-65
2022/10/21 00:24:47;;;;;;;13.05;5.35;;;;;;;;;;5011735;28;20057;-67
2022/10/21 00:27:13;;;;;;;15.18;5.03;;;;;;;;;;5012819;28;20462;-67
2022/10/21 00:29:39;;;;;;;14.23;5.43;;;;;;;;;;5011415;28;20433;-67
2022/10/21 00:32:04;;;;;;;14.10;4.90;;;;;;;;;;5011617;28;20113;-67
2022/10/21 00:34:31;;;;;;;12.27;5.05;;;;;;;;;;5012608;28;20389;-64
2022/10/21 00:36:57;;;;;;;11.35;4.78;;;;;;;;;;5012638;28;20030;-64
2022/10/21 00:39:22;;;;;;;13.32;5.22;;;;;;;;;;5012604;28;20029;-64
2022/10/21 00:41:48;;;;;;;10.15;5.18;;;;;;;;;;5012517;28;20057;-67
2022/10/21 00:44:13;;;;;;;12.38;5.32;;;;;;;;;;5012748;28;20264;-64
2022/10/21 00:46:50;;;;;;;10.77;4.90;;;;;;;;;;5012515;28;20591;-67
2022/10/21 00:49:41;;;;;;;10.43;5.15;;;;;;;;;;5012714;28;20026;-66
2022/10/21 00:52:14;;;;;;;9.93;4.97;;;;;;;;;;5011952;28;20038;-68
2022/10/21 00:54:42;;;;;;;13.43;5.32;;;;;;;;;;5012743;28;20037;-65
2022/10/21 00:57:08;;;;;;;13.75;5.80;;;;;;;;;;5011482;28;20037;-67
2022/10/21 00:59:39;;;;;;;12.95;5.18;;;;;;;;;;5012377;28;20025;-66
2022/10/21 01:02:05;;;;;;;10.82;4.65;;;;;;;;;;5012281;28;20038;-64
2022/10/21 01:04:31;;;;;;;11.23;4.78;;;;;;;;;;5012261;28;20068;-68
2022/10/21 01:06:56;;;;;;;13.93;4.93;;;;;;;;;;5012288;28;20116;-64
2022/10/21 01:09:24;;;;;;;12.43;4.72;;;;;;;;;;5012231;28;20169;-64
2022/10/21 01:11:50;;;;;;;15.00;5.10;;;;;;;;;;5012491;28;20094;-67
2022/10/21 01:14:28;;;;;;;10.60;4.82;;;;;;;;;;5012045;28;20050;-67
2022/10/21 01:17:12;;;;;;;11.13;5.03;;;;;;;;;;5012245;28;20492;-66
2022/10/21 01:20:09;;;;;;;10.68;4.47;;;;;;;;;;5012149;28;20478;-66
2022/10/21 01:23:14;;;;;;;8.68;4.53;;;;;;;;;;5012358;28;20064;-68
2022/10/21 01:26:05;;;;;;;9.23;4.47;;;;;;;;;;5012429;28;20033;-66
2022/10/21 01:29:09;;;;;;;8.68;4.65;;;;;;;;;;5012432;28;20103;-67
2022/10/21 01:31:45;;;;;;;13.50;5.10;;;;;;;;;;5012137;28;20022;-67
2022/10/21 01:34:43;;;;;;;11.20;4.85;;;;;;;;;;5013680;28;20378;-67
2022/10/21 01:37:55;;;;;;;10.25;4.70;;;;;;;;;;5014185;28;20041;-67
2022/10/21 01:40:27;;;;;;;12.15;4.55;;;;;;;;;;5010062;28;20125;-67
2022/10/21 01:42:57;;;;;;;10.23;4.95;;;;;;;;;;5015512;28;20029;-67
2022/10/21 01:45:30;;;;;;;10.85;4.85;;;;;;;;;;5015882;28;20355;-67
2022/10/21 01:48:01;;;;;;;10.73;4.65;;;;;;;;;;5015463;28;20030;-66
2022/10/21 01:50:32;;;;;;;11.98;5.13;;;;;;;;;;5015479;28;20024;-65
2022/10/21 01:53:03;;;;;;;11.35;4.50;;;;;;;;;;5015672;28;20042;-64
2022/10/21 01:55:31;;;;;;;9.60;4.15;;;;;;;;;;5015352;28;20034;-66
2022/10/21 01:58:04;;;;;;;9.60;4.50;;;;;;;;;;5015517;28;20105;-64
2022/10/21 02:00:31;;;;;;;12.05;4.90;;;;;;;;;;5015218;28;20611;-67
2022/10/21 02:02:59;;;;;;;10.70;5.00;;;;;;;;;;5015408;28;20034;-64
2022/10/21 02:05:29;;;;;;;13.98;5.20;;;;;;;;;;5015511;28;20054;-66
2022/10/21 02:07:55;;;;;;;9.35;4.32;;;;;;;;;;5015423;28;20067;-64
2022/10/21 02:10:24;;;;;;;11.70;4.88;;;;;;;;;;5015321;28;20362;-68
2022/10/21 02:12:53;;;;;;;7.18;4.28;;;;;;;;;;5014952;28;20061;-66
2022/10/21 02:15:21;;;;;;;18.85;4.72;;;;;;;;;;5014803;28;20037;-64
2022/10/21 02:17:54;;;;;;;8.75;4.45;;;;;;;;;;5014884;28;20026;-67
2022/10/21 02:20:23;;;;;;;8.85;4.50;;;;;;;;;;5015157;28;20103;-68
2022/10/21 02:22:49;;;;;;;8.95;4.53;;;;;;;;;;5014984;28;20104;-65
2022/10/21 02:25:19;;;;;;;9.38;4.70;;;;;;;;;;5014660;28;20029;-66
2022/10/21 02:27:45;;;;;;;12.20;4.78;;;;;;;;;;5014752;28;20032;-67
2022/10/21 02:30:11;;;;;;;11.07;4.85;;;;;;;;;;5014884;28;20433;-66
2022/10/21 02:32:50;;;;;;;7.68;4.55;;;;;;;;;;5014892;28;20030;-66
2022/10/21 02:35:27;;;;;;;8.35;4.32;;;;;;;;;;5014834;28;20147;-67
2022/10/21 02:38:00;;;;;;;11.45;4.60;;;;;;;;;;5013629;28;20026;-65
2022/10/21 02:40:36;;;;;;;10.35;4.95;;;;;;;;;;5014728;28;20109;-64
2022/10/21 02:43:10;;;;;;;8.98;4.22;;;;;;;;;;5014391;28;20571;-67
2022/10/21 02:45:38;;;;;;;10.25;5.55;;;;;;;;;;5013515;28;20072;-66
2022/10/21 02:48:04;;;;;;;8.95;4.47;;;;;;;;;;5014311;28;20101;-68
2022/10/21 02:50:30;;;;;;;8.60;4.35;;;;;;;;;;5014518;28;20026;-68
2022/10/21 02:52:55;;;;;;;11.40;4.35;;;;;;;;;;5014192;28;20034;-68
2022/10/21 02:55:21;;;;;;;9.88;4.68;;;;;;;;;;5014536;28;20154;-64
2022/10/21 02:57:47;;;;;;;11.23;5.10;;;;;;;;;;5014199;28;20385;-64
2022/10/21 03:00:13;;;;;;;10.75;4.40;;;;;;;;;;5014387;28;20385;-67
2022/10/21 03:02:39;;;;;;;8.80;4.40;;;;;;;;;;5013908;28;20470;-66
2022/10/21 03:05:04;;;;;;;8.57;4.13;;;;;;;;;;5014249;28;20108;-65
2022/10/21 03:07:30;;;;;;;8.10;4.32;;;;;;;;;;5014251;28;20029;-67
2022/10/21 03:09:55;;;;;;;9.48;4.40;;;;;;;;;;5013954;28;20026;-65
2022/10/21 03:12:21;;;;;;;8.88;3.95;;;;;;;;;;5013892;28;20470;-67
2022/10/21 03:14:46;;;;;;;8.98;4.68;;;;;;;;;;5013715;28;20041;-66
2022/10/21 03:17:12;;;;;;;8.65;4.00;;;;;;;;;;5013742;28;20026;-66
2022/10/21 03:19:37;;;;;;;11.73;4.30;;;;;;;;;;5012558;28;20433;-67
2022/10/21 03:22:03;;;;;;;7.97;4.20;;;;;;;;;;5013713;28;20070;-66
2022/10/21 03:24:28;;;;;;;8.90;4.13;;;;;;;;;;5013687;28;20474;-67
2022/10/21 03:26:54;;;;;;;10.02;4.85;;;;;;;;;;5013890;28;20026;-66
2022/10/21 03:29:20;;;;;;;10.05;4.35;;;;;;;;;;5013846;28;20444;-67
2022/10/21 03:31:45;;;;;;;8.60;4.50;;;;;;;;;;5013488;28;20103;-68
2022/10/21 03:34:11;;;;;;;8.68;4.13;;;;;;;;;;5013407;28;20065;-65
2022/10/21 03:36:36;;;;;;;7.88;4.18;;;;;;;;;;5013704;28;20034;-64
2022/10/21 03:39:02;;;;;;;9.90;4.13;;;;;;;;;;5013473;28;20466;-65
2022/10/21 03:41:27;;;;;;;8.73;3.97;;;;;;;;;;5013611;28;20026;-67
2022/10/21 03:43:53;;;;;;;8.60;4.30;;;;;;;;;;5013302;28;20116;-66
2022/10/21 03:46:18;;;;;;;8.75;4.15;;;;;;;;;;5013313;28;20080;-68
2022/10/21 03:48:44;;;;;;;10.38;3.97;;;;;;;;;;5013180;28;20156;-66
2022/10/21 03:51:09;;;;;;;8.48;4.40;;;;;;;;;;5013467;28;20066;-66
2022/10/21 03:53:35;;;;;;;8.45;4.10;;;;;;;;;;5013094;28;20417;-67
2022/10/21 03:56:00;;;;;;;7.78;4.03;;;;;;;;;;5013363;28;20041;-65
2022/10/21 03:58:27;;;;;;;10.45;4.07;;;;;;;;;;5013257;28;20032;-64
2022/10/21 04:00:53;;;;;;;7.85;4.35;;;;;;;;;;5013288;28;20382;-67
2022/10/21 04:03:19;;;;;;;7.72;4.03;;;;;;;;;;5012842;28;20501;-67
2022/10/21 04:05:44;;;;;;;8.30;4.20;;;;;;;;;;5013267;28;20033;-67
2022/10/21 04:08:10;;;;;;;8.75;4.20;;;;;;;;;;5012910;28;20092;-67
2022/10/21 04:10:35;;;;;;;6.80;4.25;;;;;;;;;;5012850;28;20116;-66
2022/10/21 04:13:01;;;;;;;8.32;4.20;;;;;;;;;;5013114;28;20022;-67
2022/10/21 04:15:27;;;;;;;9.23;4.57;;;;;;;;;;5012735;28;20108;-66
2022/10/21 04:17:52;;;;;;;9.73;4.20;;;;;;;;;;5012773;28;20089;-66
2022/10/21 04:20:18;;;;;;;10.23;4.30;;;;;;;;;;5012755;28;20095;-66
2022/10/21 04:22:44;;;;;;;7.30;3.80;;;;;;;;;;5012625;28;20045;-68
2022/10/21 04:25:09;;;;;;;9.18;4.32;;;;;;;;;;5013004;28;20068;-67
2022/10/21 04:27:35;;;;;;;7.93;3.85;;;;;;;;;;5012781;28;20425;-66
2022/10/21 04:30:00;;;;;;;9.05;4.10;;;;;;;;;;5012743;28;20029;-68
2022/10/21 04:32:26;;;;;;;6.85;4.10;;;;;;;;;;5012855;28;20022;-68
2022/10/21 04:34:51;;;;;;;6.95;4.07;;;;;;;;;;5012709;28;20026;-65
2022/10/21 04:37:17;;;;;;;7.88;3.70;;;;;;;;;;5012579;28;20018;-68
2022/10/21 04:39:42;;;;;;;9.32;4.35;;;;;;;;;;5012778;28;20029;-67
2022/10/21 04:42:08;;;;;;;8.43;3.90;;;;;;;;;;5012698;28;20025;-66
2022/10/21 04:44:35;;;;;;;9.27;4.43;;;;;;;;;;5011325;28;20180;-67
2022/10/21 04:47:01;;;;;;;5.88;3.42;;;;;;;;;;5012543;28;20030;-64
2022/10/21 04:49:26;;;;;;;9.30;4.43;;;;;;;;;;5011657;28;20025;-67
2022/10/21 04:51:52;;;;;;;7.28;3.88;;;;;;;;;;5012476;28;20448;-68
2022/10/21 04:54:18;;;;;;;7.07;3.88;;;;;;;;;;5012742;28;20036;-67
2022/10/21 04:56:43;;;;;;;7.95;4.47;;;;;;;;;;5012376;28;20068;-67
2022/10/21 04:59:09;;;;;;;6.47;4.13;;;;;;;;;;5012923;28;20036;-67
2022/10/21 05:01:34;;;;;;;7.57;3.95;;;;;;;;;;5012480;28;20080;-67
2022/10/21 05:04:00;;;;;;;8.85;4.10;;;;;;;;;;5012215;28;20478;-67
2022/10/21 05:06:25;;;;;;;6.45;3.53;;;;;;;;;;5012303;28;20029;-65
2022/10/21 05:08:51;;;;;;;6.38;3.45;;;;;;;;;;5013353;28;20041;-65
2022/10/21 05:11:16;;;;;;;6.97;3.97;;;;;;;;;;5016001;28;20378;-68
2022/10/21 05:13:42;;;;;;;8.02;3.80;;;;;;;;;;5015771;28;20058;-67
2022/10/21 05:16:07;;;;;;;8.00;3.80;;;;;;;;;;5016209;28;20164;-67
2022/10/21 05:18:33;;;;;;;7.15;4.25;;;;;;;;;;5014728;28;20033;-65
2022/10/21 05:20:59;;;;;;;6.47;3.95;;;;;;;;;;5015846;28;20040;-66
2022/10/21 05:23:25;;;;;;;7.90;3.92;;;;;;;;;;5016011;28;20044;-67
2022/10/21 05:25:51;;;;;;;6.47;3.78;;;;;;;;;;5016151;28;20374;-67
2022/10/21 05:28:19;;;;;;;6.55;3.75;;;;;;;;;;5015846;28;20018;-67
2022/10/21 05:30:45;;;;;;;6.47;3.50;;;;;;;;;;5015678;28;20034;-67
2022/10/21 05:33:11;;;;;;;4.97;3.65;;;;;;;;;;5015643;28;20072;-68
2022/10/21 05:35:36;;;;;;;8.60;4.00;;;;;;;;;;5015844;28;20032;-67
2022/10/21 05:38:03;;;;;;;8.32;3.80;;;;;;;;;;5015627;28;20033;-67
2022/10/21 05:40:29;;;;;;;6.60;3.63;;;;;;;;;;5015547;28;20029;-67
2022/10/21 05:42:55;;;;;;;6.63;3.58;;;;;;;;;;5015446;28;20073;-68
2022/10/21 05:45:20;;;;;;;5.65;3.78;;;;;;;;;;5015608;28;20057;-64
2022/10/21 05:47:46;;;;;;;7.75;3.80;;;;;;;;;;5015705;28;20025;-65
2022/10/21 05:50:12;;;;;;;8.68;3.75;;;;;;;;;;5015416;28;20068;-66
2022/10/21 05:52:39;;;;;;;7.35;3.70;;;;;;;;;;5015242;28;20570;-66
2022/10/21 05:55:05;;;;;;;6.40;3.75;;;;;;;;;;5015564;28;20084;-66
2022/10/21 05:57:35;;;;;;;5.28;3.60;;;;;;;;;;5015220;28;20026;-66
2022/10/21 06:00:01;;;;;;;6.30;3.78;;;;;;;;;;5017694;28;20434;-66
2022/10/21 06:02:27;;;;;;;6.32;4.10;;;;;;;;;;5015353;28;20072;-67
2022/10/21 06:04:52;;;;;;;7.40;3.70;;;;;;;;;;5015468;28;20489;-67
2022/10/21 06:07:17;;;;;;;6.85;3.50;;;;;;;;;;5023457;28;20378;-66
2022/10/21 06:09:43;;;;;;;7.38;3.88;;;;;;;;;;5028595;28;20025;-66
2022/10/21 06:12:09;;;;;;;6.07;3.42;;;;;;;;;;5034932;28;20041;-63
2022/10/21 06:14:35;;;;;;;6.18;3.58;;;;;;;;;;5034273;28;20055;-65
2022/10/21 06:17:02;;;;;;;5.75;3.80;;;;;;;;;;5034723;28;20366;-64
2022/10/21 06:19:27;;;;;;;6.65;3.63;;;;;;;;;;5034536;28;20037;-66
2022/10/21 06:21:53;;;;;;;5.70;3.60;;;;;;;;;;5033684;28;20037;-65
2022/10/21 06:24:19;;;;;;;7.10;4.03;;;;;;;;;;5034995;28;20032;-64
2022/10/21 06:26:45;;;;;;;5.75;3.45;;;;;;;;;;5034800;28;20108;-65
2022/10/21 06:29:10;;;;;;;5.60;3.35;;;;;;;;;;5034458;28;20117;-67
2022/10/21 06:31:36;;;;;;;5.55;3.95;;;;;;;;;;5033143;28;20022;-67
2022/10/21 06:34:02;;;;;;;5.43;3.33;;;;;;;;;;5034612;28;20026;-68
2022/10/21 06:36:28;;;;;;;6.32;3.67;;;;;;;;;;5034270;28;20053;-68
2022/10/21 06:38:54;;;;;;;6.53;3.90;;;;;;;;;;5034307;28;20028;-68
2022/10/21 06:41:19;;;;;;;7.25;4.05;;;;;;;;;;5032963;28;20059;-68
2022/10/21 06:43:45;;;;;;;5.78;3.78;;;;;;;;;;5034151;28;20121;-68
2022/10/21 06:46:12;;;;;;;9.00;3.80;;;;;;;;;;5034251;28;20033;-64
2022/10/21 06:48:38;;;;;;;6.75;3.55;;;;;;;;;;5034478;28;20486;-67
2022/10/21 06:51:13;;;;;;;6.53;3.90;;;;;;;;;;5034034;28;20114;-64
2022/10/21 06:53:40;;;;;;;6.28;3.45;;;;;;;;;;5032992;28;20026;-66
2022/10/21 06:56:08;;;;;;;5.93;3.80;;;;;;;;;;5034247;28;20037;-67
2022/10/21 06:58:35;;;;;;;7.20;3.72;;;;;;;;;;5024168;28;20029;-66
2022/10/21 07:01:12;;;;;;;5.72;3.30;;;;;;;;;;5015045;28;20470;-67
2022/10/21 07:03:37;;;;;;;8.82;3.75;;;;;;;;;;5014044;28;20575;-68
2022/10/21 07:06:03;;;;;;;5.80;3.75;;;;;;;;;;5013911;28;20104;-68
2022/10/21 07:08:30;;;;;;;5.90;3.58;;;;;;;;;;5020903;28;20496;-68
2022/10/21 07:10:56;;;;;;;5.80;3.45;;;;;;;;;;5022949;28;20029;-68
2022/10/21 07:13:22;;;;;;;5.10;3.55;;;;;;;;;;5033592;28;20104;-67
2022/10/21 07:16:06;;;;;;;6.38;3.55;;;;;;;;;;5033517;28;20405;-68
2022/10/21 07:18:32;;;;;;;6.80;3.65;;;;;;;;;;5023057;28;20042;-68
2022/10/21 07:21:06;;;;;;;5.40;3.88;;;;;;;;;;5023424;28;20478;-68
2022/10/21 07:23:32;;;;;;;5.53;3.58;;;;;;;;;;5033288;28;20439;-63
2022/10/21 07:25:57;;;;;;;6.03;3.78;;;;;;;;;;5033652;28;20029;-65
2022/10/21 07:28:23;;;;;;;6.53;3.22;;;;;;;;;;5032919;28;20500;-66
2022/10/21 07:30:48;;;;;;;7.32;3.28;;;;;;;;;;5033136;28;20036;-65
2022/10/21 07:33:14;;;;;;;5.28;4.00;;;;;;;;;;5032936;28;20087;-62
2022/10/21 07:35:40;;;;;;;8.13;3.67;;;;;;;;;;5031735;28;20013;-65
2022/10/21 07:38:06;;;;;;;4.80;3.40;;;;;;;;;;5033203;28;20112;-64
2022/10/21 07:40:37;;;;;;;6.30;3.53;;;;;;;;;;5033447;28;20541;-63
2022/10/21 07:43:02;;;;;;;9.32;3.58;;;;;;;;;;5032446;28;20079;-65
2022/10/21 07:45:28;;;;;;;8.15;3.75;;;;;;;;;;5031855;28;20021;-63
2022/10/21 07:47:53;;;;;;;6.95;3.65;;;;;;;;;;5031928;28;20030;-66
2022/10/21 07:50:19;;;;;;;8.05;3.85;;;;;;;;;;5032427;28;20469;-66
2022/10/21 07:52:44;;;;;;;4.55;3.40;;;;;;;;;;5032455;28;20056;-65
2022/10/21 07:55:12;;;;;;;6.05;3.33;;;;;;;;;;5032521;28;20033;-64
2022/10/21 07:57:38;;;;;;;5.53;3.15;;;;;;;;;;5028024;28;20071;-65
2022/10/21 08:00:04;;;;;;;6.35;3.38;;;;;;;;;;5021898;28;20408;-63
2022/10/21 08:02:30;;;;;;;7.63;3.67;;;;;;;;;;5023800;28;20058;-66
2022/10/21 08:04:56;;;;;;;6.75;3.20;;;;;;;;;;5022776;28;20021;-66
2022/10/21 08:07:21;;;;;;;4.68;3.45;;;;;;;;;;5024120;28;20025;-66
2022/10/21 08:09:47;;;;;;;5.70;3.38;;;;;;;;;;5031545;28;20444;-63
2022/10/21 08:12:12;;;;;;;5.97;3.72;;;;;;;;;;5030644;28;20038;-65
2022/10/21 08:14:38;;;;;;;5.40;3.08;;;;;;;;;;5030703;28;20493;-62
2022/10/21 08:17:04;;;;;;;6.38;3.65;;;;;;;;;;5032242;28;20022;-63
2022/10/21 08:19:29;;;;;;;5.32;3.40;;;;;;;;;;5032491;28;20030;-66
2022/10/21 08:21:56;;;;;;;5.93;3.38;;;;;;;;;;5032341;28;20038;-66
2022/10/21 08:24:22;;;;;;;6.20;3.55;;;;;;;;;;5031696;28;20121;-62
2022/10/21 08:26:48;;;;;;;5.22;3.42;;;;;;;;;;5032408;28;20062;-67
2022/10/21 08:29:14;;;;;;;5.65;3.63;;;;;;;;;;5030755;28;20028;-63
2022/10/21 08:31:39;;;;;;;5.07;3.03;;;;;;;;;;5033020;28;20029;-63
2022/10/21 08:34:05;;;;;;;7.85;3.40;;;;;;;;;;5029528;28;20030;-63
2022/10/21 08:36:31;;;;;;;6.80;3.45;;;;;;;;;;5026078;28;20071;-63
2022/10/21 08:38:57;;;;;;;9.30;3.40;;;;;;;;;;5032435;28;20021;-65
2022/10/21 08:41:29;;;;;;;6.15;3.72;;;;;;;;;;5031096;28;20480;-63
2022/10/21 08:44:05;;;;;;;6.65;3.35;;;;;;;;;;5031856;28;20041;-64
2022/10/21 08:46:41;;;;;;;6.45;3.60;;;;;;;;;;5034767;28;20035;-63
2022/10/21 08:49:27;;;;;;;6.38;3.03;;;;;;;;;;5034974;28;20032;-64
2022/10/21 08:52:04;;;;;;;10.70;3.50;;;;;;;;;;5034603;28;20030;-66
2022/10/21 08:54:51;;;;;;;6.72;3.65;;;;;;;;;;5034724;28;20025;-65
2022/10/21 08:57:16;;;;;;;5.18;3.58;;;;;;;;;;5034946;28;20115;-65
2022/10/21 08:59:42;;;;;;;8.50;3.05;;;;;;;;;;5032164;28;20033;-64
2022/10/21 09:02:11;;;;;;;7.75;3.25;;;;;;;;;;5023085;28;20389;-67
2022/10/21 09:05:11;;;;;;;8.55;3.50;;;;;;;;;;5014721;28;20030;-66
2022/10/21 09:08:18;;;;;;;6.20;3.08;;;;;;;;;;5014743;28;20034;-64
2022/10/21 09:10:55;;;;;;;7.82;3.50;;;;;;;;;;5014434;28;20141;-63
2022/10/21 09:13:40;;;;;;;6.38;3.60;;;;;;;;;;5014881;28;20111;-63
2022/10/21 09:16:33;;;;;;;5.55;3.33;;;;;;;;;;5013179;28;20053;-64
2022/10/21 09:19:25;;;;;;;4.90;3.45;;;;;;;;;;5028386;28;20374;-64
2022/10/21 09:22:04;;;;;;;5.28;3.35;;;;;;;;;;5034489;28;20037;-66
2022/10/21 09:24:46;;;;;;;5.03;3.40;;;;;;;;;;5034462;28;20067;-65
2022/10/21 09:27:11;;;;;;;6.65;4.18;;;;;;;;;;5034520;28;20525;-64
2022/10/21 09:29:42;;;;;;;5.93;3.13;;;;;;;;;;5034426;28;20064;-68
2022/10/21 09:32:17;;;;;;;5.80;3.35;;;;;;;;;;5034403;28;20033;-67
2022/10/21 09:34:59;;;;;;;5.30;3.55;;;;;;;;;;5031944;28;20044;-67
2022/10/21 09:37:32;;;;;;;5.65;3.50;;;;;;;;;;5034055;28;20095;-63
2022/10/21 09:40:18;;;;;;;5.78;3.60;;;;;;;;;;5034148;28;20033;-65
2022/10/21 09:42:44;;;;;;;6.00;3.10;;;;;;;;;;5034099;28;20029;-62
2022/10/21 09:45:35;;;;;;;5.93;3.72;;;;;;;;;;5033822;28;20075;-64
2022/10/21 09:48:16;;;;;;;5.10;3.20;;;;;;;;;;5014131;28;20030;-63
2022/10/21 09:50:42;;;;;;;4.68;3.50;;;;;;;;;;5028935;28;20040;-64
2022/10/21 09:53:19;;;;;;;6.57;3.13;;;;;;;;;;5032309;28;20033;-67
2022/10/21 09:55:50;;;;;;;5.28;3.20;;;;;;;;;;5033286;28;20254;-67
2022/10/21 09:58:28;;;;;;;8.48;3.65;;;;;;;;;;5033573;28;20040;-62
2022/10/21 10:00:54;;;;;;;4.70;3.25;;;;;;;;;;5032102;28;20029;-63
2022/10/21 10:03:52;;;;;;;5.57;3.33;;;;;;;;;;5033215;28;20542;-66
2022/10/21 10:06:47;;;;;;;5.05;3.38;;;;;;;;;;5033738;28;20068;-63
2022/10/21 10:09:30;;;;;;;5.95;3.47;;;;;;;;;;5031813;28;20072;-66
2022/10/21 10:12:03;;;;;;;5.85;2.97;;;;;;;;;;5031968;28;20440;-68
2022/10/21 10:14:34;;;;;;;5.65;3.38;;;;;;;;;;5030726;28;20056;-66
2022/10/21 10:17:34;;;;;;;5.40;3.13;;;;;;;;;;5031762;28;20032;-64
2022/10/21 10:20:03;;;;;;;4.43;3.40;;;;;;;;;;5033088;28;20033;-64
2022/10/21 10:22:42;;;;;;;5.47;3.25;;;;;;;;;;5032892;28;20033;-63
2022/10/21 10:25:10;;;;;;;3.97;2.95;;;;;;;;;;5033104;28;20040;-63
2022/10/21 10:27:53;;;;;;;5.32;3.03;;;;;;;;;;5032933;28;20033;-63
2022/10/21 10:30:20;;;;;;;4.78;3.03;;;;;;;;;;5032755;28;20084;-64
2022/10/21 10:32:47;;;;;;;4.45;3.20;;;;;;;;;;5032868;28;20031;-64
2022/10/21 10:35:27;;;;;;;4.93;3.20;;;;;;;;;;5032784;28;20029;-63
2022/10/21 10:37:53;;;;;;;5.88;2.80;;;;;;;;;;5032927;28;20057;-66
2022/10/21 10:40:27;;;;;;;4.95;2.85;;;;;;;;;;5031436;28;20076;-64
2022/10/21 10:43:04;;;;;;;4.25;3.20;;;;;;;;;;5032643;28;20096;-63
2022/10/21 10:45:30;;;;;;;4.72;3.35;;;;;;;;;;5032645;28;20504;-62
2022/10/21 10:47:59;;;;;;;6.05;3.28;;;;;;;;;;5032705;28;20037;-67
2022/10/21 10:50:37;;;;;;;4.72;3.38;;;;;;;;;;5032503;28;20500;-64
2022/10/21 10:53:29;;;;;;;8.13;3.33;;;;;;;;;;5031248;28;20088;-66
2022/10/21 10:56:23;;;;;;;5.07;3.25;;;;;;;;;;5031476;28;20176;-65
2022/10/21 10:59:15;;;;;;;5.03;3.10;;;;;;;;;;5032364;28;20067;-65
2022/10/21 11:02:06;;;;;;;5.47;3.13;;;;;;;;;;5032351;28;20029;-66
2022/10/21 11:04:40;;;;;;;5.30;2.83;;;;;;;;;;5032233;28;20025;-64
2022/10/21 11:07:43;;;;;;;3.75;3.00;;;;;;;;;;5014145;28;20026;-67
2022/10/21 11:10:30;;;;;;;4.07;3.00;;;;;;;;;;5001033;28;20064;-64
2022/10/21 11:12:57;;;;;;;3.17;2.88;;;;;;;;;;5030890;28;20030;-66
2022/10/21 11:15:38;;;;;;;4.65;3.00;;;;;;;;;;5032048;28;20504;-64
2022/10/21 11:18:32;;;;;;;5.97;3.05;;;;;;;;;;5032055;28;20025;-65
2022/10/21 11:21:06;;;;;;;5.70;3.50;;;;;;;;;;5030731;28;20067;-63
2022/10/21 11:23:50;;;;;;;5.13;2.88;;;;;;;;;;5031820;28;20119;-66
2022/10/21 11:26:36;;;;;;;4.38;3.08;;;;;;;;;;5031953;28;20431;-64
2022/10/21 11:29:13;;;;;;;4.45;3.30;;;;;;;;;;5031922;28;20198;-67
2022/10/21 11:31:56;;;;;;;5.32;2.85;;;;;;;;;;5023820;28;20048;-64
2022/10/21 11:34:33;;;;;;;4.88;3.15;;;;;;;;;;5021976;28;20091;-64
2022/10/21 11:37:27;;;;;;;5.40;3.10;;;;;;;;;;5015926;28;20478;-70
2022/10/21 11:40:16;;;;;;;5.65;3.22;;;;;;;;;;5031684;28;20041;-66
2022/10/21 11:42:45;;;;;;;7.32;3.28;;;;;;;;;;5030236;28;20067;-65
2022/10/21 11:45:11;;;;;;;5.10;3.30;;;;;;;;;;5028454;28;20037;-65
2022/10/21 11:47:49;;;;;;;3.67;3.00;;;;;;;;;;5031344;28;20025;-64
2022/10/21 11:50:20;;;;;;;4.15;3.20;;;;;;;;;;5030448;28;20044;-64
2022/10/21 11:53:11;;;;;;;4.90;3.05;;;;;;;;;;5030119;28;20062;-64
2022/10/21 11:55:37;;;;;;;4.63;2.92;;;;;;;;;;5031610;28;20029;-64
2022/10/21 11:58:21;;;;;;;5.40;3.05;;;;;;;;;;5030859;28;20053;-64
2022/10/21 12:01:22;;;;;;;4.25;3.20;;;;;;;;;;5031080;28;20037;-64
2022/10/21 12:04:07;;;;;;;5.30;3.30;;;;;;;;;;4995901;28;20042;-65
2022/10/21 12:06:51;;;;;;;4.75;2.88;;;;;;;;;;5031052;28;20094;-65
2022/10/21 12:09:33;;;;;;;4.05;2.75;;;;;;;;;;5031179;28;20053;-65
2022/10/21 12:12:22;;;;;;;4.53;3.50;;;;;;;;;;5029259;28;20036;-64
2022/10/21 12:14:54;;;;;;;4.47;2.95;;;;;;;;;;5029310;28;20576;-64
2022/10/21 12:17:23;;;;;;;4.10;3.10;;;;;;;;;;5029892;28;20037;-65
2022/10/21 12:19:58;;;;;;;5.07;3.17;;;;;;;;;;5031006;28;20080;-64
2022/10/21 12:22:26;;;;;;;6.38;3.00;;;;;;;;;;5028059;28;20039;-64
2022/10/21 12:25:23;;;;;;;6.90;3.17;;;;;;;;;;5017885;28;20034;-64
2022/10/21 12:27:58;;;;;;;5.95;3.30;;;;;;;;;;5027508;28;20040;-64
2022/10/21 12:30:35;;;;;;;5.30;3.20;;;;;;;;;;5031162;28;20056;-64
2022/10/21 12:33:42;;;;;;;6.78;3.40;;;;;;;;;;5031205;28;20021;-63
2022/10/21 12:36:24;;;;;;;4.07;2.97;;;;;;;;;;5022945;28;20438;-64
2022/10/21 12:38:54;;;;;;;4.68;3.20;;;;;;;;;;5025553;28;20017;-64
2022/10/21 12:41:23;;;;;;;4.78;3.10;;;;;;;;;;5020797;28;20115;-64
2022/10/21 12:44:03;;;;;;;4.53;3.30;;;;;;;;;;5021439;28;20034;-64
2022/10/21 12:46:31;;;;;;;3.90;2.88;;;;;;;;;;5013102;28;20073;-63
2022/10/21 12:49:04;;;;;;;5.18;3.13;;;;;;;;;;5013411;28;20034;-64
2022/10/21 12:51:33;;;;;;;8.68;3.15;;;;;;;;;;5023782;28;20025;-64
2022/10/21 12:54:02;;;;;;;4.15;2.97;;;;;;;;;;5030715;28;20036;-64
2022/10/21 12:56:35;;;;;;;3.20;2.90;;;;;;;;;;5030562;28;20544;-64
2022/10/21 12:59:05;;;;;;;4.95;3.17;;;;;;;;;;5022201;28;20080;-64
2022/10/21 13:02:04;;;;;;;5.43;3.05;;;;;;;;;;5025842;28;20389;-64
2022/10/21 13:04:33;;;;;;;5.60;3.20;;;;;;;;;;5029488;28;20113;-65
2022/10/21 13:07:02;;;;;;;4.82;2.80;;;;;;;;;;5023549;28;20027;-64
2022/10/21 13:09:36;;;;;;;4.20;3.20;;;;;;;;;;5023761;28;20103;-64
2022/10/21 13:12:08;;;;;;;4.25;3.03;;;;;;;;;;5027113;28;20037;-65
2022/10/21 13:14:38;;;;;;;7.70;3.30;;;;;;;;;;5026630;28;20061;-65
2022/10/21 13:17:22;;;;;;;4.22;3.00;;;;;;;;;;5028799;28;20032;-65
2022/10/21 13:19:50;;;;;;;4.75;2.83;;;;;;;;;;5010666;28;20022;-64
2022/10/21 13:22:37;;;;;;;4.03;3.00;;;;;;;;;;5010426;28;20038;-64
2022/10/21 13:25:15;;;;;;;3.40;2.90;;;;;;;;;;5013323;28;20033;-65
2022/10/21 13:27:43;;;;;;;4.50;3.30;;;;;;;;;;5029110;28;20034;-64
2022/10/21 13:30:28;;;;;;;5.53;2.90;;;;;;;;;;5027668;28;20040;-64
2022/10/21 13:33:05;;;;;;;3.25;2.90;;;;;;;;;;5032089;28;20033;-64
2022/10/21 13:35:44;;;;;;;3.83;2.55;;;;;;;;;;5018952;28;20034;-64
2022/10/21 13:38:31;;;;;;;3.42;2.90;;;;;;;;;;5031172;28;20049;-64
2022/10/21 13:41:17;;;;;;;3.85;3.00;;;;;;;;;;5033833;28;20025;-65
2022/10/21 13:43:50;;;;;;;4.43;3.20;;;;;;;;;;5028826;28;20038;-64
2022/10/21 13:46:29;;;;;;;4.30;3.13;;;;;;;;;;5022363;28;20057;-65
2022/10/21 13:48:59;;;;;;;3.33;2.65;;;;;;;;;;5020293;28;20515;-64
2022/10/21 13:51:33;;;;;;;3.17;2.78;;;;;;;;;;5014005;28;20042;-64
2022/10/21 13:54:10;;;;;;;3.22;2.80;;;;;;;;;;5014444;28;20022;-64
2022/10/21 13:56:37;;;;;;;4.88;3.03;;;;;;;;;;5013577;28;20536;-62
2022/10/21 13:59:04;;;;;;;4.60;2.90;;;;;;;;;;5021510;28;20052;-62
2022/10/21 14:01:45;;;;;;;4.40;3.10;;;;;;;;;;5033691;28;20124;-66
2022/10/21 14:04:28;;;;;;;3.33;3.00;;;;;;;;;;5032281;28;20566;-61
2022/10/21 14:07:02;;;;;;;8.73;3.15;;;;;;;;;;5030634;28;20114;-68
2022/10/21 14:09:32;;;;;;;3.80;2.90;;;;;;;;;;5031702;28;20512;-64
2022/10/21 14:12:01;;;;;;;3.90;2.60;;;;;;;;;;5033126;28;20045;-67
2022/10/21 14:14:28;;;;;;;3.63;2.57;;;;;;;;;;5033346;28;20082;-65
2022/10/21 14:16:59;;;;;;;4.90;3.22;;;;;;;;;;5023638;28;20029;-67
2022/10/21 14:19:35;;;;;;;3.75;3.03;;;;;;;;;;5033328;28;20029;-66
2022/10/21 14:22:04;;;;;;;3.30;2.63;;;;;;;;;;5033367;28;20076;-66
2022/10/21 14:24:40;;;;;;;3.05;2.75;;;;;;;;;;5033088;28;20552;-68
2022/10/21 14:27:10;;;;;;;6.38;3.15;;;;;;;;;;5033149;28;20532;-64
2022/10/21 14:29:35;;;;;;;4.30;3.10;;;;;;;;;;5033072;28;20029;-62
2022/10/21 14:32:02;;;;;;;4.43;3.10;;;;;;;;;;5033191;28;20039;-61
2022/10/21 14:34:32;;;;;;;3.55;2.55;;;;;;;;;;5033187;28;20030;-65
2022/10/21 14:37:19;;;;;;;4.38;3.15;;;;;;;;;;5031895;28;20443;-67
2022/10/21 14:39:45;;;;;;;4.38;3.03;;;;;;;;;;5032629;28;20040;-68
2022/10/21 14:42:18;;;;;;;5.03;2.70;;;;;;;;;;5030596;28;20048;-64
2022/10/21 14:44:45;;;;;;;5.53;3.05;;;;;;;;;;5032763;28;20040;-65
2022/10/21 14:47:18;;;;;;;5.05;3.17;;;;;;;;;;5033040;28;20029;-63
2022/10/21 14:49:49;;;;;;;3.00;2.35;;;;;;;;;;5032878;28;20048;-64
2022/10/21 14:52:38;;;;;;;3.72;2.72;;;;;;;;;;5032402;28;20433;-64
2022/10/21 14:55:11;;;;;;;3.45;2.83;;;;;;;;;;5032299;28;20067;-67
2022/10/21 14:57:41;;;;;;;4.30;3.08;;;;;;;;;;5032919;28;20040;-66
2022/10/21 15:00:21;;;;;;;5.75;3.20;;;;;;;;;;5032724;28;20136;-61
2022/10/21 15:02:48;;;;;;;3.00;2.70;;;;;;;;;;5032700;28;20041;-66
2022/10/21 15:05:33;;;;;;;5.25;2.80;;;;;;;;;;5032299;28;20404;-62
2022/10/21 15:08:25;;;;;;;4.55;3.05;;;;;;;;;;5030926;28;20124;-66